createdAt,value
2018-05-31T00:02:10.207Z,68.90
2018-05-31T00:04:39.786Z,69.40
2018-05-31T00:07:08.690Z,69.30
2018-05-31T00:09:38.729Z,69.70
2018-05-31T00:12:08.331Z,69.90
2018-05-31T00:14:37.897Z,70.00
2018-05-31T00:17:06.729Z,70.00
2018-05-31T00:19:36.281Z,70.20
2018-05-31T00:22:05.103Z,70.20
2018-05-31T00:24:33.931Z,70.30
2018-05-31T00:27:02.724Z,70.40
2018-05-31T00:29:31.524Z,70.50
2018-05-31T00:32:00.376Z,70.60
2018-05-31T00:34:29.199Z,70.70
2018-05-31T00:36:58.012Z,70.70
2018-05-31T00:39:27.587Z,70.90
2018-05-31T00:41:56.409Z,71.50
2018-05-31T00:44:25.256Z,71.10
2018-05-31T00:46:54.012Z,71.40
2018-05-31T00:49:22.822Z,71.70
2018-05-31T00:51:51.628Z,72.00
2018-05-31T00:54:21.221Z,73.00
2018-05-31T00:56:50.132Z,73.00
2018-05-31T00:59:19.784Z,73.70
2018-05-31T01:01:48.646Z,73.70
2018-05-31T01:04:17.472Z,73.90
2018-05-31T01:06:47.038Z,74.20
2018-05-31T01:09:15.830Z,74.00
2018-05-31T01:11:44.642Z,74.30
2018-05-31T01:14:13.487Z,74.40
2018-05-31T01:16:42.303Z,74.60
2018-05-31T01:19:11.886Z,74.40
2018-05-31T01:21:40.700Z,74.40
2018-05-31T01:24:09.506Z,74.10
2018-05-31T01:26:39.229Z,73.20
2018-05-31T01:29:08.794Z,73.20
2018-05-31T01:31:37.626Z,73.10
2018-05-31T01:34:06.460Z,73.30
2018-05-31T01:36:35.307Z,73.30
2018-05-31T01:39:04.926Z,73.70
2018-05-31T01:41:33.720Z,73.70
2018-05-31T01:44:02.542Z,73.70
2018-05-31T01:46:32.096Z,73.80
2018-05-31T01:49:01.045Z,73.80
2018-05-31T01:51:30.612Z,74.10
2018-05-31T01:53:59.421Z,74.00
2018-05-31T01:56:28.236Z,74.10
2018-05-31T01:58:57.038Z,74.00
2018-05-31T02:01:25.864Z,73.90
2018-05-31T02:03:54.676Z,73.80
2018-05-31T02:06:23.867Z,73.80
2018-05-31T02:08:52.663Z,73.70
2018-05-31T02:11:21.485Z,73.70
2018-05-31T02:13:50.300Z,73.70
2018-05-31T02:16:19.170Z,73.70
2018-05-31T02:18:48.756Z,74.10
2018-05-31T02:21:17.546Z,74.00
2018-05-31T02:23:46.354Z,74.00
2018-05-31T02:26:15.190Z,73.70
2018-05-31T02:28:43.984Z,73.50
2018-05-31T02:31:13.606Z,73.40
2018-05-31T02:33:42.452Z,73.40
2018-05-31T02:36:11.315Z,73.30
2018-05-31T02:38:40.895Z,73.50
2018-05-31T02:41:10.475Z,73.60
2018-05-31T02:43:39.299Z,73.60
2018-05-31T02:46:08.127Z,73.80
2018-05-31T02:48:37.686Z,73.90
2018-05-31T02:51:06.623Z,73.90
2018-05-31T02:53:35.453Z,74.00
2018-05-31T02:56:04.255Z,73.90
2018-05-31T02:58:33.464Z,73.90
2018-05-31T03:01:03.047Z,73.90
2018-05-31T03:03:31.827Z,73.70
2018-05-31T03:06:00.715Z,73.80
2018-05-31T03:08:29.533Z,73.90
2018-05-31T03:10:59.114Z,74.30
2018-05-31T03:13:28.705Z,74.30
2018-05-31T03:15:57.511Z,74.10
2018-05-31T03:18:27.065Z,74.20
2018-05-31T03:20:55.883Z,74.20
2018-05-31T03:23:25.461Z,74.30
2018-05-31T03:25:54.248Z,74.30
2018-05-31T03:28:23.079Z,74.20
2018-05-31T03:30:51.889Z,74.20
2018-05-31T03:33:22.214Z,73.90
2018-05-31T03:35:50.981Z,73.90
2018-05-31T03:38:19.823Z,73.90
2018-05-31T03:40:48.719Z,73.80
2018-05-31T03:43:17.629Z,73.70
2018-05-31T03:45:46.449Z,73.60
2018-05-31T03:48:15.281Z,73.80
2018-05-31T03:50:44.898Z,74.10
2018-05-31T03:53:14.477Z,74.20
2018-05-31T03:55:43.373Z,74.20
2018-05-31T03:58:12.192Z,74.30
2018-05-31T04:00:41.099Z,74.30
2018-05-31T04:03:09.893Z,74.40
2018-05-31T04:05:39.551Z,74.40
2018-05-31T04:08:08.401Z,74.40
2018-05-31T04:10:38.009Z,74.50
2018-05-31T04:13:06.856Z,74.40
2018-05-31T04:15:35.637Z,74.50
2018-05-31T04:18:05.263Z,75.60
2018-05-31T04:20:34.870Z,74.70
2018-05-31T04:23:04.417Z,74.80
2018-05-31T04:25:34.042Z,74.80
2018-05-31T04:28:03.653Z,74.90
2018-05-31T04:30:33.260Z,74.80
2018-05-31T04:33:02.975Z,74.50
2018-05-31T04:35:32.537Z,74.40
2018-05-31T04:38:01.375Z,74.40
2018-05-31T04:40:30.989Z,73.90
2018-05-31T04:43:00.687Z,73.70
2018-05-31T04:45:30.271Z,73.60
2018-05-31T04:48:00.116Z,73.50
2018-05-31T04:50:29.696Z,73.40
2018-05-31T04:52:58.490Z,73.30
2018-05-31T04:55:28.069Z,73.40
2018-05-31T04:57:56.866Z,73.40
2018-05-31T05:00:25.802Z,73.50
2018-05-31T05:02:54.619Z,73.70
2018-05-31T05:05:23.408Z,74.00
2018-05-31T05:07:52.249Z,74.30
2018-05-31T05:10:21.842Z,75.00
2018-05-31T05:12:50.764Z,75.00
2018-05-31T05:15:19.682Z,75.20
2018-05-31T05:17:49.277Z,75.00
2018-05-31T05:20:18.200Z,75.00
2018-05-31T05:22:48.012Z,74.50
2018-05-31T05:25:16.807Z,74.50
2018-05-31T05:27:45.634Z,74.10
2018-05-31T05:30:14.460Z,73.40
2018-05-31T05:32:43.332Z,72.20
2018-05-31T05:35:12.900Z,70.90
2018-05-31T05:37:41.742Z,70.90
2018-05-31T05:40:11.308Z,70.10
2018-05-31T05:42:40.249Z,70.10
2018-05-31T05:45:09.085Z,69.70
2018-05-31T05:47:38.695Z,69.00
2018-05-31T05:50:07.532Z,69.00
2018-05-31T05:52:36.303Z,68.50
2018-05-31T05:55:05.127Z,67.90
2018-05-31T05:57:34.746Z,67.90
2018-05-31T06:00:04.316Z,67.60
2018-05-31T06:02:33.110Z,67.60
2018-05-31T06:05:01.930Z,68.00
2018-05-31T06:07:30.770Z,68.20
2018-05-31T06:09:59.601Z,68.20
2018-05-31T06:12:29.857Z,69.00
2018-05-31T06:14:58.691Z,69.00
2018-05-31T06:17:27.508Z,69.40
2018-05-31T06:19:56.423Z,69.40
2018-05-31T06:22:26.031Z,69.40
2018-05-31T06:24:54.912Z,69.40
2018-05-31T06:27:24.514Z,68.50
2018-05-31T06:29:54.113Z,68.50
2018-05-31T06:32:22.932Z,68.40
2018-05-31T06:34:51.733Z,68.50
2018-05-31T06:37:20.622Z,68.50
2018-05-31T06:39:49.349Z,68.80
2018-05-31T06:42:18.151Z,68.90
2018-05-31T06:44:46.954Z,69.00
2018-05-31T06:47:15.757Z,69.20
2018-05-31T06:49:44.577Z,69.30
2018-05-31T06:52:14.298Z,69.10
2018-05-31T06:54:43.108Z,69.00
2018-05-31T06:57:11.912Z,69.30
2018-05-31T06:59:40.740Z,68.90
2018-05-31T07:02:09.571Z,67.80
2018-05-31T07:04:38.389Z,67.40
2018-05-31T07:07:07.211Z,67.10
2018-05-31T07:09:36.776Z,66.80
2018-05-31T07:12:05.566Z,66.60
2018-05-31T07:14:34.413Z,66.30
2018-05-31T07:17:03.213Z,66.10
2018-05-31T07:19:32.027Z,65.80
2018-05-31T07:22:00.831Z,65.80
2018-05-31T07:24:29.665Z,65.20
2018-05-31T07:26:58.486Z,64.80
2018-05-31T07:29:27.285Z,64.80
2018-05-31T07:31:56.862Z,65.00
2018-05-31T07:34:25.654Z,65.00
2018-05-31T07:36:54.533Z,64.80
2018-05-31T07:39:23.400Z,64.80
2018-05-31T07:41:52.222Z,64.30
2018-05-31T07:44:21.086Z,64.60
2018-05-31T07:46:49.799Z,64.50
2018-05-31T07:49:18.607Z,64.00
2018-05-31T07:51:47.419Z,63.90
2018-05-31T07:54:16.235Z,63.30
2018-05-31T07:56:45.043Z,63.60
2018-05-31T07:59:13.851Z,64.20
2018-05-31T08:01:42.708Z,63.20
2018-05-31T08:04:12.285Z,63.00
2018-05-31T08:06:41.115Z,63.00
2018-05-31T08:09:09.907Z,63.00
2018-05-31T08:11:38.769Z,63.20
2018-05-31T08:14:07.559Z,63.10
2018-05-31T08:16:36.379Z,62.30
2018-05-31T08:19:05.172Z,61.80
2018-05-31T08:21:34.763Z,61.90
2018-05-31T08:24:03.697Z,61.70
2018-05-31T08:26:33.251Z,62.40
2018-05-31T08:29:02.212Z,62.40
2018-05-31T08:31:31.110Z,62.30
2018-05-31T08:33:59.857Z,61.40
2018-05-31T08:36:28.649Z,60.90
2018-05-31T08:38:57.461Z,60.80
2018-05-31T08:41:27.065Z,60.10
2018-05-31T08:43:55.887Z,60.10
2018-05-31T08:46:25.468Z,59.90
2018-05-31T08:48:54.253Z,59.90
2018-05-31T08:51:23.073Z,60.30
2018-05-31T08:53:52.426Z,60.00
2018-05-31T08:56:21.255Z,60.10
2018-05-31T08:58:50.058Z,60.20
2018-05-31T09:01:18.870Z,60.00
2018-05-31T09:03:49.267Z,59.50
2018-05-31T09:06:18.083Z,59.40
2018-05-31T09:08:47.465Z,58.70
2018-05-31T09:11:17.063Z,58.00
2018-05-31T09:13:46.144Z,58.00
2018-05-31T09:16:14.948Z,57.70
2018-05-31T09:18:43.771Z,57.70
2018-05-31T09:21:12.559Z,57.70
2018-05-31T09:23:42.222Z,58.00
2018-05-31T09:26:11.041Z,57.70
2018-05-31T09:28:39.863Z,57.50
2018-05-31T09:31:08.704Z,57.50
2018-05-31T09:33:37.505Z,57.80
2018-05-31T09:36:07.084Z,58.20
2018-05-31T09:38:35.884Z,58.20
2018-05-31T09:41:04.754Z,58.20
2018-05-31T09:43:33.524Z,58.20
2018-05-31T09:46:03.085Z,58.00
2018-05-31T09:48:31.943Z,57.90
2018-05-31T09:51:01.504Z,57.60
2018-05-31T09:53:30.543Z,57.50
2018-05-31T09:55:59.388Z,57.20
2018-05-31T09:58:28.246Z,57.40
2018-05-31T10:00:57.793Z,56.90
2018-05-31T10:03:26.600Z,56.90
2018-05-31T10:05:55.411Z,56.90
2018-05-31T10:08:24.218Z,57.40
2018-05-31T10:10:53.046Z,56.90
2018-05-31T10:13:21.858Z,56.60
2018-05-31T10:15:50.662Z,56.50
2018-05-31T10:18:19.503Z,55.60
2018-05-31T10:20:49.078Z,55.70
2018-05-31T10:23:18.672Z,55.20
2018-05-31T10:25:47.481Z,55.20
2018-05-31T10:28:16.341Z,55.20
2018-05-31T10:30:45.160Z,55.00
2018-05-31T10:33:14.002Z,55.60
2018-05-31T10:35:42.917Z,55.60
2018-05-31T10:38:12.497Z,54.60
2018-05-31T10:40:41.295Z,54.60
2018-05-31T10:43:10.192Z,54.50
2018-05-31T10:45:39.004Z,54.40
2018-05-31T10:48:07.805Z,54.30
2018-05-31T10:50:36.628Z,52.90
2018-05-31T10:53:05.428Z,52.70
2018-05-31T10:55:34.245Z,52.30
2018-05-31T10:58:03.066Z,52.00
2018-05-31T11:00:31.961Z,51.90
2018-05-31T11:03:00.890Z,50.70
2018-05-31T11:05:30.567Z,51.00
2018-05-31T11:07:59.457Z,50.90
2018-05-31T11:10:28.292Z,51.00
2018-05-31T11:12:57.076Z,49.90
2018-05-31T11:15:25.883Z,49.60
2018-05-31T11:17:54.794Z,49.50
2018-05-31T11:20:24.346Z,49.00
2018-05-31T11:22:53.272Z,48.90
2018-05-31T11:25:22.853Z,49.10
2018-05-31T11:27:51.794Z,49.10
2018-05-31T11:30:21.340Z,47.40
2018-05-31T11:32:50.186Z,47.40
2018-05-31T11:35:18.978Z,47.60
2018-05-31T11:37:47.774Z,48.20
2018-05-31T11:40:16.588Z,48.10
2018-05-31T11:42:45.389Z,47.30
2018-05-31T11:45:14.973Z,46.60
2018-05-31T11:47:44.034Z,46.50
2018-05-31T11:50:12.854Z,46.10
2018-05-31T11:52:41.672Z,46.10
2018-05-31T11:55:10.495Z,46.00
2018-05-31T11:57:39.314Z,45.90
2018-05-31T12:00:08.913Z,47.20
2018-05-31T12:02:37.723Z,47.20
2018-05-31T12:05:06.512Z,47.70
2018-05-31T12:07:35.351Z,48.10
2018-05-31T12:10:04.176Z,49.00
2018-05-31T12:12:32.999Z,49.50
2018-05-31T12:15:01.786Z,49.90
2018-05-31T12:17:30.613Z,50.10
2018-05-31T12:19:59.420Z,50.00
2018-05-31T12:22:28.306Z,50.20
2018-05-31T12:24:57.095Z,50.20
2018-05-31T12:27:25.887Z,50.00
2018-05-31T12:29:54.678Z,49.80
2018-05-31T12:32:23.566Z,49.40
2018-05-31T12:34:52.384Z,48.80
2018-05-31T12:37:21.205Z,48.60
2018-05-31T12:39:49.993Z,47.50
2018-05-31T12:42:18.817Z,47.00
2018-05-31T12:44:47.655Z,46.60
2018-05-31T12:47:16.473Z,46.30
2018-05-31T12:49:45.349Z,45.50
2018-05-31T12:52:14.921Z,44.20
2018-05-31T12:54:43.777Z,44.20
2018-05-31T12:57:12.584Z,43.70
2018-05-31T12:59:41.509Z,43.80
2018-05-31T13:02:11.114Z,44.10
2018-05-31T13:04:39.912Z,44.10
2018-05-31T13:07:09.638Z,43.50
2018-05-31T13:09:39.241Z,44.10
2018-05-31T13:12:08.850Z,44.80
2018-05-31T13:14:37.632Z,44.80
2018-05-31T13:17:06.446Z,45.60
2018-05-31T13:19:36.002Z,45.30
2018-05-31T13:22:04.794Z,45.20
2018-05-31T13:24:34.411Z,42.70
2018-05-31T13:27:04.018Z,40.80
2018-05-31T13:29:32.912Z,40.80
2018-05-31T13:32:01.705Z,40.30
2018-05-31T13:34:31.285Z,39.60
2018-05-31T13:37:00.086Z,39.50
2018-05-31T13:39:28.974Z,39.90
2018-05-31T13:41:57.805Z,38.70
2018-05-31T13:44:26.602Z,38.30
2018-05-31T13:46:56.153Z,38.60
2018-05-31T13:49:25.078Z,38.60
2018-05-31T13:51:53.905Z,38.40
2018-05-31T13:54:22.707Z,37.80
2018-05-31T13:56:51.532Z,37.70
2018-05-31T13:59:20.345Z,37.70
2018-05-31T14:01:49.935Z,38.50
2018-05-31T14:04:18.730Z,38.50
2018-05-31T14:06:47.557Z,39.00
2018-05-31T14:09:16.410Z,39.20
2018-05-31T14:11:45.309Z,39.70
2018-05-31T14:14:14.102Z,40.50
2018-05-31T14:16:42.904Z,41.00
2018-05-31T14:19:11.735Z,39.40
2018-05-31T14:21:40.603Z,39.20
2018-05-31T14:24:09.404Z,38.90
2018-05-31T14:26:38.216Z,38.70
2018-05-31T14:29:07.161Z,38.00
2018-05-31T14:31:36.031Z,37.80
2018-05-31T14:34:04.834Z,38.00
2018-05-31T14:36:34.416Z,38.50
2018-05-31T14:39:03.764Z,38.40
2018-05-31T14:41:32.595Z,38.90
2018-05-31T14:44:01.397Z,40.50
2018-05-31T14:46:30.310Z,42.80
2018-05-31T14:48:59.917Z,54.30
2018-05-31T14:51:28.705Z,54.30
2018-05-31T14:53:57.621Z,59.10
2018-05-31T14:56:27.199Z,65.60
2018-05-31T14:58:56.013Z,65.60
2018-05-31T15:01:24.830Z,68.60
2018-05-31T15:03:54.015Z,71.20
2018-05-31T15:06:22.827Z,73.30
2018-05-31T15:08:51.657Z,63.90
2018-05-31T15:11:21.215Z,61.50
2018-05-31T15:13:50.169Z,61.20
2018-05-31T15:16:18.959Z,57.80
2018-05-31T15:18:47.743Z,57.50
2018-05-31T15:21:16.567Z,55.90
2018-05-31T15:23:45.388Z,55.90
2018-05-31T15:26:14.220Z,56.20
2018-05-31T15:28:43.040Z,56.40
2018-05-31T15:31:12.623Z,58.10
2018-05-31T15:33:41.534Z,58.10
2018-05-31T15:36:10.469Z,58.10
2018-05-31T15:38:39.291Z,57.80
2018-05-31T15:41:08.091Z,57.20
2018-05-31T15:43:38.149Z,57.90
2018-05-31T15:46:06.951Z,57.90
2018-05-31T15:48:35.755Z,62.70
2018-05-31T15:51:04.555Z,66.20
2018-05-31T15:53:33.392Z,69.00
2018-05-31T15:56:02.181Z,71.30
2018-05-31T15:58:31.741Z,75.40
2018-05-31T16:01:00.561Z,74.70
2018-05-31T16:03:29.405Z,75.60
2018-05-31T16:05:58.209Z,77.00
2018-05-31T16:08:27.125Z,78.30
2018-05-31T16:10:55.959Z,79.20
2018-05-31T16:13:24.747Z,80.00
2018-05-31T16:15:53.585Z,80.70
2018-05-31T16:18:22.431Z,81.60
2018-05-31T16:20:51.251Z,82.00
2018-05-31T16:23:20.429Z,82.20
2018-05-31T16:25:49.373Z,82.50
2018-05-31T16:28:18.975Z,83.20
2018-05-31T16:30:48.591Z,83.30
2018-05-31T16:33:18.159Z,83.40
2018-05-31T16:35:46.959Z,83.40
2018-05-31T16:38:15.771Z,83.80
2018-05-31T16:40:44.641Z,84.30
2018-05-31T16:43:14.179Z,84.90
2018-05-31T16:45:43.746Z,85.20
2018-05-31T16:48:12.544Z,85.20
2018-05-31T16:50:41.345Z,85.60
2018-05-31T16:53:10.174Z,85.90
2018-05-31T16:55:38.980Z,85.90
2018-05-31T16:58:07.786Z,85.60
2018-05-31T17:00:36.592Z,84.40
2018-05-31T17:03:06.956Z,83.50
2018-05-31T17:05:35.782Z,83.40
2018-05-31T17:08:04.606Z,82.70
2018-05-31T17:10:33.414Z,73.60
2018-05-31T17:13:02.224Z,73.60
2018-05-31T17:15:31.933Z,71.80
2018-05-31T17:18:01.523Z,72.50
2018-05-31T17:20:30.351Z,72.50
2018-05-31T17:22:59.891Z,72.00
2018-05-31T17:25:28.704Z,72.00
2018-05-31T17:27:58.303Z,70.60
2018-05-31T17:30:27.220Z,71.30
2018-05-31T17:32:56.808Z,68.40
2018-05-31T17:38:00.784Z,67.70
2018-05-31T17:40:29.591Z,66.20
2018-05-31T17:42:58.446Z,66.00
2018-05-31T17:45:27.220Z,66.50
2018-05-31T17:47:56.151Z,66.50
2018-05-31T17:50:25.057Z,66.90
2018-05-31T17:52:54.610Z,68.20
2018-05-31T17:55:23.510Z,68.00
2018-05-31T17:57:52.268Z,68.80
2018-05-31T18:00:21.091Z,69.10
2018-05-31T18:02:49.944Z,69.20
2018-05-31T18:05:18.758Z,69.60
2018-05-31T18:07:47.700Z,70.30
2018-05-31T18:10:17.259Z,70.80
2018-05-31T18:12:46.070Z,70.80
2018-05-31T18:15:14.907Z,71.00
2018-05-31T18:17:43.724Z,71.20
2018-05-31T18:20:12.550Z,71.40
2018-05-31T18:22:41.337Z,71.40
2018-05-31T18:25:10.936Z,71.50
2018-05-31T18:27:39.806Z,71.40
2018-05-31T18:30:08.600Z,71.30
2018-05-31T18:32:37.394Z,71.40
2018-05-31T18:35:06.296Z,71.70
2018-05-31T18:37:35.134Z,72.00
2018-05-31T18:40:04.035Z,72.40
2018-05-31T18:42:32.870Z,72.80
2018-05-31T18:45:01.678Z,73.60
2018-05-31T18:47:30.511Z,74.30
2018-05-31T18:49:59.314Z,75.80
2018-05-31T18:52:28.111Z,76.00
2018-05-31T18:54:56.918Z,75.10
2018-05-31T18:57:25.743Z,74.70
2018-05-31T18:59:54.635Z,74.60
2018-05-31T19:02:23.442Z,74.30
2018-05-31T19:04:53.022Z,74.20
2018-05-31T19:07:28.343Z,74.00
2018-05-31T19:09:57.211Z,74.10
2018-05-31T19:12:31.562Z,74.20
2018-05-31T19:15:01.174Z,74.30
2018-05-31T19:17:30.746Z,74.20
2018-05-31T19:19:59.544Z,74.20
2018-05-31T19:22:28.369Z,74.20
2018-05-31T19:25:03.778Z,73.90
2018-05-31T19:27:32.589Z,73.60
2018-05-31T19:30:07.781Z,73.10
2018-05-31T19:32:36.591Z,73.10
2018-05-31T19:35:05.413Z,73.10
2018-05-31T19:37:34.235Z,73.50
2018-05-31T19:40:03.048Z,73.40
2018-05-31T19:42:38.107Z,73.00
2018-05-31T19:45:06.892Z,73.00
2018-05-31T19:47:35.732Z,73.20
2018-05-31T19:50:04.520Z,73.10
2018-05-31T19:52:38.821Z,73.30
2018-05-31T19:55:07.630Z,73.10
2018-05-31T19:57:42.796Z,74.90
2018-05-31T20:00:17.026Z,74.80
2018-05-31T20:02:51.457Z,75.40
2018-05-31T20:05:20.276Z,76.60
2018-05-31T20:07:49.076Z,78.60
2018-05-31T20:10:18.001Z,81.00
2018-05-31T20:12:47.566Z,84.70
2018-05-31T20:15:16.583Z,84.70
2018-05-31T20:17:46.124Z,87.10
2018-05-31T20:20:14.979Z,87.00
2018-05-31T20:22:44.548Z,88.80
2018-05-31T20:25:13.373Z,88.80
2018-05-31T20:27:42.179Z,89.20
2018-05-31T20:30:11.047Z,90.00
2018-05-31T20:32:40.409Z,90.10
2018-05-31T20:35:09.989Z,90.80
2018-05-31T20:37:38.789Z,90.40
2018-05-31T20:40:07.715Z,90.60
2018-05-31T20:42:36.506Z,90.70
2018-05-31T20:45:06.109Z,91.10
2018-05-31T20:47:34.915Z,91.00
2018-05-31T20:50:06.033Z,91.20
2018-05-31T20:52:34.825Z,91.20
2018-05-31T20:55:04.442Z,91.40
2018-05-31T20:57:34.045Z,91.60
2018-05-31T21:00:03.607Z,91.50
2018-05-31T21:02:32.416Z,91.50
2018-05-31T21:05:01.266Z,91.30
2018-05-31T21:07:30.077Z,91.40
2018-05-31T21:09:59.646Z,91.40
2018-05-31T21:12:28.471Z,91.40
2018-05-31T21:14:57.280Z,91.60
2018-05-31T21:17:26.980Z,91.40
2018-05-31T21:20:06.058Z,91.40
2018-05-31T21:22:35.622Z,91.40
2018-05-31T21:25:04.431Z,91.40
2018-05-31T21:27:33.260Z,91.70
2018-05-31T21:30:02.042Z,91.40
2018-05-31T21:32:30.860Z,91.50
2018-05-31T21:34:59.644Z,91.60
2018-05-31T21:37:28.468Z,91.70
2018-05-31T21:39:58.030Z,91.80
2018-05-31T21:42:26.835Z,91.80
2018-05-31T21:44:55.658Z,91.80
2018-05-31T21:47:25.230Z,92.00
2018-05-31T21:50:05.328Z,92.00
2018-05-31T21:52:34.177Z,92.00
2018-05-31T21:55:03.094Z,92.20
2018-05-31T21:57:31.901Z,92.20
2018-05-31T22:00:00.759Z,92.20
2018-05-31T22:02:30.314Z,92.20
2018-05-31T22:04:59.115Z,92.20
2018-05-31T22:07:27.972Z,92.20
2018-05-31T22:09:57.497Z,92.30
2018-05-31T22:12:26.314Z,92.20
2018-05-31T22:14:55.230Z,92.60
2018-05-31T22:17:24.032Z,92.20
2018-05-31T22:19:53.610Z,92.30
2018-05-31T22:22:22.418Z,92.30
2018-05-31T22:24:51.263Z,92.40
2018-05-31T22:27:20.087Z,92.50
2018-05-31T22:29:48.899Z,92.50
2018-05-31T22:32:17.721Z,92.40
2018-05-31T22:34:48.713Z,92.80
2018-05-31T22:37:17.551Z,92.80
2018-05-31T22:39:46.371Z,92.80
2018-05-31T22:42:15.933Z,92.70
2018-05-31T22:44:45.557Z,92.70
2018-05-31T22:47:14.361Z,92.70
2018-05-31T22:49:43.929Z,92.70
2018-05-31T22:52:12.857Z,92.70
2018-05-31T22:54:42.423Z,92.80
2018-05-31T22:57:11.241Z,92.80
2018-05-31T22:59:40.056Z,92.90
2018-05-31T23:02:09.629Z,93.10
2018-05-31T23:04:38.501Z,93.10
2018-05-31T23:07:08.057Z,93.10
2018-05-31T23:09:36.857Z,93.10
2018-05-31T23:12:05.677Z,93.20
2018-05-31T23:14:34.468Z,93.10
2018-05-31T23:17:03.271Z,93.10
2018-05-31T23:19:32.084Z,93.20
2018-05-31T23:22:00.919Z,93.20
2018-05-31T23:24:29.708Z,93.20
2018-05-31T23:26:58.578Z,93.30
2018-05-31T23:29:27.448Z,93.30
2018-05-31T23:31:57.069Z,93.30
2018-05-31T23:34:25.882Z,93.30
2018-05-31T23:36:54.683Z,93.30
2018-05-31T23:39:24.257Z,93.40
2018-05-31T23:41:53.198Z,93.30
2018-05-31T23:44:21.968Z,93.40
2018-05-31T23:46:50.785Z,93.40
2018-05-31T23:49:19.576Z,93.30
2018-05-31T23:51:48.494Z,93.50
2018-05-31T23:54:17.289Z,93.50
2018-05-31T23:56:46.104Z,93.60
2018-05-31T23:59:14.923Z,93.60
